createdAt,value
2024-02-29T00:02:13.920Z,75962.03
2024-02-29T00:04:40.861Z,75953.78
2024-02-29T00:07:07.672Z,75949.63
2024-02-29T00:09:34.464Z,75945.50
2024-02-29T00:12:01.170Z,75945.50
2024-02-29T00:14:28.253Z,75949.63
2024-02-29T00:16:55.114Z,75941.38
2024-02-29T00:19:21.847Z,75937.22
2024-02-29T00:21:48.668Z,75933.09
2024-02-29T00:24:15.395Z,75937.22
2024-02-29T00:26:42.890Z,75926.88
2024-02-29T00:29:09.820Z,75928.97
2024-02-29T00:31:36.522Z,75924.81
2024-02-29T00:34:03.343Z,75939.28
2024-02-29T00:36:30.275Z,75941.38
2024-02-29T00:39:05.855Z,75964.13
2024-02-29T00:41:38.563Z,75966.19
2024-02-29T00:44:05.532Z,75962.03
2024-02-29T00:46:32.180Z,75970.31
2024-02-29T00:48:59.022Z,75968.25
2024-02-29T00:51:25.739Z,75974.44
2024-02-29T00:53:52.430Z,75974.44
2024-02-29T00:56:19.198Z,75964.13
2024-02-29T00:58:45.858Z,75964.13
2024-02-29T01:01:12.545Z,75978.59
2024-02-29T01:03:39.434Z,75974.44
2024-02-29T01:06:06.395Z,75964.13
2024-02-29T01:08:33.029Z,75972.38
2024-02-29T01:10:59.807Z,75962.03
2024-02-29T01:13:26.631Z,75959.97
2024-02-29T01:15:53.317Z,75953.78
2024-02-29T01:18:20.011Z,75953.78
2024-02-29T01:20:46.724Z,75949.63
2024-02-29T01:23:13.800Z,75939.28
2024-02-29T01:25:40.468Z,75949.63
2024-02-29T01:28:07.227Z,75949.63
2024-02-29T01:30:34.047Z,75947.56
2024-02-29T01:33:00.782Z,75953.78
2024-02-29T01:35:27.875Z,75943.44
2024-02-29T01:37:54.566Z,75947.56
2024-02-29T01:40:21.349Z,75964.13
2024-02-29T01:42:48.103Z,75964.13
2024-02-29T01:45:15.099Z,75984.78
2024-02-29T01:47:41.891Z,75984.78
2024-02-29T01:50:10.329Z,75984.78
2024-02-29T01:52:43.325Z,75991.00
2024-02-29T01:55:11.550Z,75993.06
2024-02-29T01:57:39.492Z,75991.00
2024-02-29T02:00:07.270Z,75982.72
2024-02-29T02:02:34.361Z,75984.78
2024-02-29T02:05:01.438Z,75978.59
2024-02-29T02:07:28.931Z,75978.59
2024-02-29T02:09:56.717Z,75974.44
2024-02-29T02:12:23.459Z,75984.78
2024-02-29T02:14:50.075Z,75984.78
2024-02-29T02:17:16.751Z,75978.59
2024-02-29T02:19:43.400Z,75974.44
2024-02-29T02:22:11.155Z,75968.25
2024-02-29T02:24:37.963Z,75966.19
2024-02-29T02:27:04.702Z,75970.31
2024-02-29T02:29:31.368Z,75964.13
2024-02-29T02:31:58.009Z,75962.03
2024-02-29T02:34:24.972Z,75962.03
2024-02-29T02:36:51.763Z,75962.03
2024-02-29T02:39:18.695Z,75957.91
2024-02-29T02:41:49.341Z,75957.91
2024-02-29T02:44:16.121Z,75966.19
2024-02-29T02:46:42.827Z,75970.31
2024-02-29T02:49:09.615Z,75976.53
2024-02-29T02:51:36.375Z,75970.31
2024-02-29T02:54:03.020Z,75974.44
2024-02-29T02:56:29.695Z,75980.66
2024-02-29T02:58:56.345Z,75974.44
2024-02-29T03:01:23.938Z,75970.31
2024-02-29T03:03:52.336Z,75970.31
2024-02-29T03:06:19.842Z,75972.38
2024-02-29T03:08:46.468Z,75970.31
2024-02-29T03:11:13.243Z,75970.31
2024-02-29T03:13:39.949Z,75972.38
2024-02-29T03:16:06.621Z,75988.94
2024-02-29T03:18:33.287Z,75986.84
2024-02-29T03:21:00.063Z,75999.25
2024-02-29T03:23:26.743Z,75995.13
2024-02-29T03:25:53.358Z,76001.34
2024-02-29T03:28:20.039Z,76003.41
2024-02-29T03:30:46.703Z,75999.25
2024-02-29T03:33:13.308Z,75995.13
2024-02-29T03:35:40.110Z,75995.13
2024-02-29T03:38:06.754Z,75999.25
2024-02-29T03:40:33.383Z,75999.25
2024-02-29T03:43:01.138Z,76001.34
2024-02-29T03:45:28.676Z,76011.66
2024-02-29T03:47:55.702Z,76001.34
2024-02-29T03:50:22.445Z,76001.34
2024-02-29T03:52:49.065Z,76001.34
2024-02-29T03:55:15.753Z,75991.00
2024-02-29T03:57:42.568Z,75999.25
2024-02-29T04:00:12.449Z,76003.41
2024-02-29T04:02:40.849Z,75995.13
2024-02-29T04:05:09.352Z,76007.53
2024-02-29T04:07:42.914Z,76009.59
2024-02-29T04:10:10.310Z,76019.94
2024-02-29T04:12:37.089Z,76013.75
2024-02-29T04:15:04.008Z,76013.75
2024-02-29T04:17:33.858Z,76013.75
2024-02-29T04:20:00.764Z,76011.66
2024-02-29T04:22:30.848Z,76007.53
2024-02-29T04:24:57.549Z,76013.75
2024-02-29T04:27:24.172Z,76007.53
2024-02-29T04:29:50.898Z,76011.66
2024-02-29T04:32:17.579Z,76005.47
2024-02-29T04:34:44.223Z,76007.53
2024-02-29T04:37:10.871Z,76003.41
2024-02-29T04:39:37.565Z,76005.47
2024-02-29T04:42:04.813Z,76003.41
2024-02-29T04:44:31.655Z,75993.06
2024-02-29T04:46:58.369Z,75999.25
2024-02-29T04:49:25.110Z,75995.13
2024-02-29T04:51:51.889Z,75995.13
2024-02-29T04:54:18.620Z,75988.94
2024-02-29T04:56:45.400Z,75982.72
2024-02-29T04:59:12.139Z,75999.25
2024-02-29T05:01:39.004Z,75995.13
2024-02-29T05:04:05.838Z,75999.25
2024-02-29T05:06:32.643Z,75988.94
2024-02-29T05:09:00.040Z,75999.25
2024-02-29T05:11:27.346Z,75995.13
2024-02-29T05:13:54.052Z,76007.53
2024-02-29T05:16:21.603Z,76001.34
2024-02-29T05:18:48.422Z,76001.34
2024-02-29T05:21:15.200Z,76003.41
2024-02-29T05:23:41.883Z,75993.06
2024-02-29T05:26:09.217Z,75991.00
2024-02-29T05:28:36.126Z,75991.00
2024-02-29T05:31:03.004Z,75995.13
2024-02-29T05:33:29.794Z,75995.13
2024-02-29T05:35:56.563Z,75995.13
2024-02-29T05:38:23.325Z,75995.13
2024-02-29T05:40:50.002Z,76001.34
2024-02-29T05:43:16.837Z,75995.13
2024-02-29T05:45:44.100Z,76005.47
2024-02-29T05:48:10.878Z,76001.34
2024-02-29T05:50:37.517Z,75995.13
2024-02-29T05:53:04.282Z,75991.00
2024-02-29T05:55:31.261Z,75991.00
2024-02-29T05:57:58.023Z,75991.00
2024-02-29T06:00:24.693Z,76001.34
2024-02-29T06:02:53.034Z,76001.34
2024-02-29T06:05:20.881Z,75993.06
2024-02-29T06:07:47.688Z,75995.13
2024-02-29T06:10:14.707Z,75993.06
2024-02-29T06:12:41.743Z,75991.00
2024-02-29T06:15:11.400Z,75982.72
2024-02-29T06:17:39.481Z,75986.84
2024-02-29T06:20:11.784Z,75988.94
2024-02-29T06:22:40.761Z,75991.00
2024-02-29T06:25:09.957Z,75993.06
2024-02-29T06:27:40.504Z,75991.00
2024-02-29T06:30:09.419Z,75986.84
2024-02-29T06:32:36.637Z,75982.72
2024-02-29T06:35:04.382Z,75974.44
2024-02-29T06:37:31.080Z,75986.84
2024-02-29T06:39:59.597Z,75991.00
2024-02-29T06:42:27.003Z,75986.84
2024-02-29T06:44:54.315Z,75984.78
2024-02-29T06:47:20.975Z,75980.66
2024-02-29T06:49:47.642Z,75974.44
2024-02-29T06:52:14.341Z,75966.19
2024-02-29T06:54:43.929Z,75959.97
2024-02-29T06:57:10.829Z,75957.91
2024-02-29T06:59:37.430Z,75955.84
2024-02-29T07:02:04.214Z,75949.63
2024-02-29T07:04:30.882Z,75955.84
2024-02-29T07:06:57.676Z,75939.28
2024-02-29T07:09:24.329Z,75928.97
2024-02-29T07:11:51.025Z,75916.56
2024-02-29T07:14:17.853Z,75916.56
2024-02-29T07:16:44.540Z,75916.56
2024-02-29T07:19:11.249Z,75908.28
2024-02-29T07:21:37.987Z,75902.06
2024-02-29T07:24:05.015Z,75879.34
2024-02-29T07:26:32.101Z,75871.06
2024-02-29T07:28:59.898Z,75875.19
2024-02-29T07:31:26.875Z,75875.19
2024-02-29T07:33:55.131Z,75893.81
2024-02-29T07:36:21.903Z,75887.59
2024-02-29T07:38:48.526Z,75866.94
2024-02-29T07:41:15.478Z,75869.00
2024-02-29T07:43:42.635Z,75858.66
2024-02-29T07:46:09.721Z,75862.78
2024-02-29T07:48:36.438Z,75842.13
2024-02-29T07:51:03.151Z,75850.38
2024-02-29T07:53:30.595Z,75842.13
2024-02-29T07:55:57.271Z,75831.78
2024-02-29T07:58:24.056Z,75827.63
2024-02-29T08:00:50.832Z,75827.63
2024-02-29T08:03:17.862Z,75809.03
2024-02-29T08:05:44.531Z,75788.34
2024-02-29T08:08:12.631Z,75784.22
2024-02-29T08:10:40.401Z,75815.22
2024-02-29T08:13:07.125Z,75804.91
2024-02-29T08:15:34.757Z,75798.69
2024-02-29T08:18:01.510Z,75786.28
2024-02-29T08:20:28.275Z,75767.69
2024-02-29T08:22:58.332Z,75761.47
2024-02-29T08:25:27.601Z,75761.47
2024-02-29T08:27:54.606Z,75759.41
2024-02-29T08:30:21.376Z,75751.13
2024-02-29T08:32:49.961Z,75751.13
2024-02-29T08:35:19.898Z,75742.88
2024-02-29T08:37:46.679Z,75749.06
2024-02-29T08:40:13.794Z,75711.84
2024-02-29T08:42:40.729Z,75689.09
2024-02-29T08:45:08.428Z,75662.22
2024-02-29T08:47:35.244Z,75649.81
2024-02-29T08:50:02.682Z,75643.63
2024-02-29T08:52:32.187Z,75625.00
2024-02-29T08:54:59.282Z,75577.44
2024-02-29T08:57:25.943Z,75565.03
2024-02-29T08:59:52.575Z,75554.72
2024-02-29T09:02:19.436Z,75546.44
2024-02-29T09:04:46.047Z,75560.91
2024-02-29T09:07:12.718Z,75540.22
2024-02-29T09:09:43.216Z,75581.59
2024-02-29T09:12:11.117Z,75585.72
2024-02-29T09:14:38.310Z,75589.84
2024-02-29T09:17:05.749Z,75606.41
2024-02-29T09:19:32.494Z,75596.06
2024-02-29T09:21:59.190Z,75587.78
2024-02-29T09:24:25.857Z,75569.19
2024-02-29T09:26:52.441Z,75560.91
2024-02-29T09:29:19.061Z,75562.97
2024-02-29T09:31:46.189Z,75538.16
2024-02-29T09:34:12.977Z,75523.69
2024-02-29T09:36:39.682Z,75540.22
2024-02-29T09:39:06.670Z,75536.09
2024-02-29T09:41:50.725Z,75531.97
2024-02-29T09:44:20.961Z,75531.97
2024-02-29T09:46:51.570Z,75515.41
2024-02-29T09:49:18.941Z,75478.22
2024-02-29T09:51:46.088Z,75445.13
2024-02-29T09:54:19.866Z,75387.22
2024-02-29T09:56:47.354Z,75387.22
2024-02-29T09:59:17.358Z,75391.38
2024-02-29T10:01:55.807Z,75395.50
2024-02-29T10:04:22.680Z,75374.84
2024-02-29T10:06:50.206Z,75366.56
2024-02-29T10:09:16.949Z,75385.16
2024-02-29T10:11:44.768Z,75395.50
2024-02-29T10:14:27.884Z,75403.78
2024-02-29T10:16:56.063Z,75399.63
2024-02-29T10:19:23.895Z,75397.56
2024-02-29T10:21:52.344Z,75364.50
2024-02-29T10:24:25.365Z,75310.75
2024-02-29T10:26:52.137Z,75283.84
2024-02-29T10:29:19.318Z,75290.06
2024-02-29T10:31:46.540Z,75277.66
2024-02-29T10:34:14.183Z,75283.84
2024-02-29T10:36:44.185Z,75294.19
2024-02-29T10:39:11.731Z,75275.59
2024-02-29T10:41:42.182Z,75259.06
2024-02-29T10:44:12.535Z,75244.59
2024-02-29T10:46:42.466Z,75236.31
2024-02-29T10:49:36.781Z,75248.72
2024-02-29T10:52:10.483Z,75242.50
2024-02-29T10:54:47.318Z,75211.50
2024-02-29T10:57:16.806Z,75182.56
2024-02-29T10:59:52.707Z,75163.94
2024-02-29T11:02:20.630Z,75149.47
2024-02-29T11:04:48.244Z,75161.88
2024-02-29T11:07:15.049Z,75170.16
2024-02-29T11:09:41.927Z,75161.88
2024-02-29T11:12:12.809Z,75143.28
2024-02-29T11:14:39.532Z,75135.00
2024-02-29T11:17:06.850Z,75176.34
2024-02-29T11:19:42.711Z,75155.69
2024-02-29T11:22:15.215Z,75128.81
2024-02-29T11:24:45.165Z,75120.53
2024-02-29T11:27:13.397Z,75110.19
2024-02-29T11:29:43.396Z,75106.06
2024-02-29T11:32:10.669Z,75081.25
2024-02-29T11:34:37.654Z,75064.72
2024-02-29T11:37:06.303Z,75056.44
2024-02-29T11:39:33.009Z,75048.19
2024-02-29T11:42:05.905Z,75070.91
2024-02-29T11:44:36.655Z,75093.66
2024-02-29T11:47:03.777Z,75091.59
2024-02-29T11:49:30.916Z,75068.84
2024-02-29T11:51:57.775Z,75048.19
2024-02-29T11:54:26.965Z,75046.09
2024-02-29T11:56:55.463Z,75048.19
2024-02-29T11:59:22.629Z,75044.03
2024-02-29T12:01:49.532Z,75048.19
2024-02-29T12:04:16.810Z,75044.03
2024-02-29T12:06:46.314Z,75044.03
2024-02-29T12:09:15.087Z,75058.50
2024-02-29T12:11:44.391Z,75050.25
2024-02-29T12:14:11.818Z,75050.25
2024-02-29T12:16:43.748Z,75039.91
2024-02-29T12:19:11.063Z,75029.56
2024-02-29T12:21:37.856Z,75044.03
2024-02-29T12:24:08.878Z,75083.31
2024-02-29T12:26:36.503Z,75075.06
2024-02-29T12:29:03.357Z,75072.97
2024-02-29T12:31:30.631Z,75060.59
2024-02-29T12:34:01.026Z,75041.97
2024-02-29T12:36:28.748Z,75015.09
2024-02-29T12:38:55.874Z,75000.63
2024-02-29T12:41:25.366Z,74990.28
2024-02-29T12:43:57.179Z,75004.75
2024-02-29T12:46:24.073Z,74990.28
2024-02-29T12:48:50.844Z,74990.28
2024-02-29T12:51:17.530Z,74977.88
2024-02-29T12:53:44.167Z,74961.34
2024-02-29T12:56:10.942Z,74953.09
2024-02-29T12:58:37.596Z,74934.47
2024-02-29T13:01:08.442Z,74926.22
2024-02-29T13:03:35.399Z,74922.06
2024-02-29T13:06:02.214Z,74944.81
2024-02-29T13:08:29.023Z,74924.13
2024-02-29T13:10:55.722Z,74899.34
2024-02-29T13:13:22.383Z,74920.00
2024-02-29T13:15:49.171Z,74928.28
2024-02-29T13:18:15.908Z,74917.94
2024-02-29T13:20:42.629Z,74924.13
2024-02-29T13:23:09.293Z,74901.41
2024-02-29T13:25:36.881Z,74886.94
2024-02-29T13:28:05.235Z,74926.22
2024-02-29T13:30:32.177Z,74930.34
2024-02-29T13:32:59.107Z,74920.00
2024-02-29T13:35:25.848Z,74930.34
2024-02-29T13:37:52.506Z,74936.53
2024-02-29T13:40:19.952Z,74940.69
2024-02-29T13:42:49.144Z,74924.13
2024-02-29T13:45:15.959Z,74907.59
2024-02-29T13:47:53.044Z,74899.34
2024-02-29T13:50:21.770Z,74903.47
2024-02-29T13:52:48.918Z,74891.06
2024-02-29T13:55:16.051Z,74866.25
2024-02-29T13:57:43.608Z,74893.13
2024-02-29T14:00:11.195Z,74911.72
2024-02-29T14:02:37.981Z,74932.41
2024-02-29T14:05:06.208Z,74911.72
2024-02-29T14:07:34.116Z,74899.34
2024-02-29T14:10:02.420Z,74920.00
2024-02-29T14:12:29.473Z,74905.53
2024-02-29T14:14:56.186Z,74907.59
2024-02-29T14:17:22.970Z,74907.59
2024-02-29T14:19:49.634Z,74893.13
2024-02-29T14:22:16.685Z,74874.53
2024-02-29T14:24:43.392Z,74903.47
2024-02-29T14:27:10.204Z,74913.81
2024-02-29T14:29:36.866Z,74940.69
2024-02-29T14:32:03.799Z,74926.22
2024-02-29T14:34:30.785Z,74951.00
2024-02-29T14:36:57.529Z,74936.53
2024-02-29T14:39:24.605Z,74959.28
2024-02-29T14:41:51.391Z,74961.34
2024-02-29T14:44:18.065Z,74932.41
2024-02-29T14:46:44.917Z,74955.16
2024-02-29T14:49:11.834Z,74932.41
2024-02-29T14:51:38.555Z,74938.59
2024-02-29T14:54:05.458Z,74924.13
2024-02-29T14:56:32.658Z,74944.81
2024-02-29T14:58:59.583Z,74936.53
2024-02-29T15:01:27.493Z,74928.28
2024-02-29T15:03:54.466Z,74928.28
2024-02-29T15:06:21.484Z,74928.28
2024-02-29T15:08:48.317Z,74930.34
2024-02-29T15:11:15.042Z,74930.34
2024-02-29T15:13:41.748Z,74934.47
2024-02-29T15:16:08.908Z,74936.53
2024-02-29T15:18:35.802Z,74977.88
2024-02-29T15:21:02.671Z,74990.28
2024-02-29T15:23:29.434Z,74988.22
2024-02-29T15:25:56.809Z,74986.16
2024-02-29T15:28:25.976Z,75002.69
2024-02-29T15:30:52.914Z,75017.16
2024-02-29T15:33:21.923Z,75015.09
2024-02-29T15:35:48.889Z,75044.03
2024-02-29T15:38:17.747Z,75035.78
2024-02-29T15:40:47.726Z,75081.25
2024-02-29T15:43:15.723Z,75075.06
2024-02-29T15:45:43.142Z,75093.66
2024-02-29T15:48:09.990Z,75095.72
2024-02-29T15:50:36.756Z,75097.78
2024-02-29T15:53:03.631Z,75106.06
2024-02-29T15:55:30.295Z,75108.13
2024-02-29T15:57:57.233Z,75120.53
2024-02-29T16:00:24.352Z,75135.00
2024-02-29T16:02:52.089Z,75137.06
2024-02-29T16:05:18.975Z,75139.16
2024-02-29T16:07:45.694Z,75145.34
2024-02-29T16:12:42.664Z,75155.69
2024-02-29T16:15:09.867Z,75163.94
2024-02-29T16:17:36.877Z,75163.94
2024-02-29T16:20:04.252Z,75178.41
2024-02-29T16:22:31.035Z,75182.56
2024-02-29T16:24:57.801Z,75190.81
2024-02-29T16:27:24.533Z,75201.16
2024-02-29T16:29:51.275Z,75205.28
2024-02-29T16:32:17.953Z,75221.84
2024-02-29T16:34:44.820Z,75234.25
2024-02-29T16:37:11.684Z,75254.91
2024-02-29T16:39:38.486Z,75263.19
2024-02-29T16:42:08.297Z,75271.47
2024-02-29T16:44:35.053Z,75275.59
2024-02-29T16:47:02.604Z,75279.72
2024-02-29T16:49:29.729Z,75288.00
2024-02-29T16:51:56.894Z,75292.13
2024-02-29T16:54:23.492Z,75304.53
2024-02-29T16:56:50.193Z,75304.53
2024-02-29T16:59:16.877Z,75325.22
2024-02-29T17:01:45.003Z,75321.06
2024-02-29T17:04:11.810Z,75331.41
2024-02-29T17:06:38.623Z,75341.75
2024-02-29T17:09:06.172Z,75345.88
2024-02-29T17:11:34.740Z,75362.44
2024-02-29T17:14:02.953Z,75378.97
2024-02-29T17:16:29.853Z,75391.38
2024-02-29T17:18:56.843Z,75403.78
2024-02-29T17:21:26.902Z,75414.13
2024-02-29T17:23:54.099Z,75422.38
2024-02-29T17:26:21.981Z,75426.50
2024-02-29T17:28:52.535Z,75428.59
2024-02-29T17:31:21.012Z,75432.72
2024-02-29T17:33:48.403Z,75438.94
2024-02-29T17:36:18.610Z,75432.72
2024-02-29T17:38:45.465Z,75441.00
2024-02-29T17:41:13.054Z,75443.06
2024-02-29T17:43:42.753Z,75438.94
2024-02-29T17:46:09.430Z,75438.94
2024-02-29T17:48:36.754Z,75451.31
2024-02-29T17:51:05.064Z,75461.66
2024-02-29T17:53:31.688Z,75465.81
2024-02-29T17:55:58.346Z,75463.72
2024-02-29T17:58:25.281Z,75467.88
2024-02-29T18:00:52.058Z,75474.06
2024-02-29T18:03:18.836Z,75474.06
2024-02-29T18:05:45.984Z,75478.22
2024-02-29T18:08:12.982Z,75480.28
2024-02-29T18:10:39.652Z,75484.41
2024-02-29T18:13:06.970Z,75488.53
2024-02-29T18:15:33.683Z,75482.34
2024-02-29T18:18:00.351Z,75484.41
2024-02-29T18:20:27.931Z,75498.88
2024-02-29T18:22:54.687Z,75498.88
2024-02-29T18:25:21.573Z,75503.03
2024-02-29T18:27:49.015Z,75505.09
2024-02-29T18:30:15.890Z,75505.09
2024-02-29T18:32:42.539Z,75509.22
2024-02-29T18:35:10.990Z,75519.56
2024-02-29T18:37:38.633Z,75527.81
2024-02-29T18:40:05.981Z,75531.97
2024-02-29T18:42:32.734Z,75527.81
2024-02-29T18:45:01.577Z,75534.03
2024-02-29T18:47:28.481Z,75540.22
2024-02-29T18:49:55.698Z,75552.63
2024-02-29T18:52:22.642Z,75556.78
2024-02-29T18:54:49.458Z,75552.63
2024-02-29T18:57:16.251Z,75556.78
2024-02-29T18:59:43.019Z,75554.72
2024-02-29T19:02:09.953Z,75554.72
2024-02-29T19:04:36.813Z,75567.13
2024-02-29T19:07:03.556Z,75569.19
2024-02-29T19:09:31.487Z,75569.19
2024-02-29T19:11:58.527Z,75581.59
2024-02-29T19:14:25.238Z,75581.59
2024-02-29T19:16:53.674Z,75591.94
2024-02-29T19:19:20.495Z,75606.41
2024-02-29T19:21:49.268Z,75610.53
2024-02-29T19:24:16.038Z,75610.53
2024-02-29T19:26:44.266Z,75612.59
2024-02-29T19:29:10.994Z,75614.66
2024-02-29T19:31:37.842Z,75618.81
2024-02-29T19:34:07.965Z,75625.00
2024-02-29T19:36:34.683Z,75631.22
2024-02-29T19:39:01.421Z,75627.06
2024-02-29T19:41:28.342Z,75627.06
2024-02-29T19:43:55.311Z,75629.13
2024-02-29T19:46:22.078Z,75631.22
2024-02-29T19:48:48.840Z,75635.34
2024-02-29T19:51:15.811Z,75633.28
2024-02-29T19:53:45.034Z,75643.63
2024-02-29T19:56:12.323Z,75635.34
2024-02-29T19:58:39.690Z,75633.28
2024-02-29T20:01:07.392Z,75631.22
2024-02-29T20:03:34.205Z,75629.13
2024-02-29T20:06:01.157Z,75629.13
2024-02-29T20:08:27.866Z,75633.28
2024-02-29T20:10:54.651Z,75639.47
2024-02-29T20:13:21.465Z,75639.47
2024-02-29T20:15:48.731Z,75639.47
2024-02-29T20:18:17.648Z,75639.47
2024-02-29T20:20:44.311Z,75633.28
2024-02-29T20:23:11.028Z,75635.34
2024-02-29T20:25:37.872Z,75633.28
2024-02-29T20:28:04.980Z,75637.41
2024-02-29T20:30:31.790Z,75637.41
2024-02-29T20:32:58.605Z,75639.47
2024-02-29T20:35:25.309Z,75635.34
2024-02-29T20:37:51.993Z,75656.03
2024-02-29T20:40:18.886Z,75656.03
2024-02-29T20:42:45.696Z,75651.88
2024-02-29T20:45:15.073Z,75668.44
2024-02-29T20:47:44.711Z,75689.09
2024-02-29T20:50:11.924Z,75689.09
2024-02-29T20:52:39.615Z,75709.78
2024-02-29T20:55:06.893Z,75705.66
2024-02-29T20:57:33.815Z,75705.66
2024-02-29T21:00:00.915Z,75707.72
2024-02-29T21:02:29.750Z,75701.50
2024-02-29T21:04:59.272Z,75697.38
2024-02-29T21:07:26.184Z,75689.09
2024-02-29T21:09:53.327Z,75689.09
2024-02-29T21:12:20.196Z,75697.38
2024-02-29T21:14:46.997Z,75701.50
2024-02-29T21:17:13.744Z,75705.66
2024-02-29T21:19:40.512Z,75707.72
2024-02-29T21:22:07.709Z,75707.72
2024-02-29T21:24:34.432Z,75701.50
2024-02-29T21:27:01.158Z,75695.31
2024-02-29T21:29:27.933Z,75701.50
2024-02-29T21:31:54.638Z,75691.16
2024-02-29T21:34:21.500Z,75684.97
2024-02-29T21:36:48.881Z,75684.97
2024-02-29T21:39:18.965Z,75678.75
2024-02-29T21:41:48.268Z,75676.69
2024-02-29T21:44:14.907Z,75676.69
2024-02-29T21:46:42.482Z,75680.84
2024-02-29T21:49:09.845Z,75676.69
2024-02-29T21:51:36.701Z,75676.69
2024-02-29T21:54:03.629Z,75664.28
2024-02-29T21:56:30.507Z,75664.28
2024-02-29T21:58:57.227Z,75656.03
2024-02-29T22:01:24.042Z,75662.22
2024-02-29T22:03:51.338Z,75662.22
2024-02-29T22:06:18.007Z,75668.44
2024-02-29T22:08:44.637Z,75664.28
2024-02-29T22:11:11.303Z,75668.44
2024-02-29T22:13:37.993Z,75660.16
2024-02-29T22:16:05.045Z,75649.81
2024-02-29T22:18:31.781Z,75639.47
2024-02-29T22:20:58.585Z,75633.28
2024-02-29T22:23:25.480Z,75631.22
2024-02-29T22:25:53.261Z,75616.72
2024-02-29T22:28:19.960Z,75625.00
2024-02-29T22:30:47.823Z,75620.88
2024-02-29T22:33:14.644Z,75618.81
2024-02-29T22:35:41.359Z,75612.59
2024-02-29T22:38:08.154Z,75612.59
2024-02-29T22:40:34.957Z,75614.66
2024-02-29T22:43:01.721Z,75631.22
2024-02-29T22:45:30.603Z,75635.34
2024-02-29T22:47:57.597Z,75631.22
2024-02-29T22:50:24.255Z,75622.94
2024-02-29T22:52:50.994Z,75631.22
2024-02-29T22:55:17.906Z,75627.06
2024-02-29T22:57:44.619Z,75631.22
2024-02-29T23:00:18.974Z,75635.34
2024-02-29T23:02:45.599Z,75631.22
2024-02-29T23:05:12.457Z,75627.06
2024-02-29T23:07:39.194Z,75622.94
2024-02-29T23:10:06.403Z,75610.53
2024-02-29T23:12:34.329Z,75610.53
2024-02-29T23:15:01.051Z,75600.19
2024-02-29T23:17:27.732Z,75596.06
2024-02-29T23:19:56.254Z,75598.13
2024-02-29T23:22:23.308Z,75589.84
2024-02-29T23:24:49.956Z,75577.44
2024-02-29T23:27:16.649Z,75569.19
2024-02-29T23:29:43.357Z,75565.03
2024-02-29T23:32:10.182Z,75565.03
2024-02-29T23:34:37.030Z,75554.72
2024-02-29T23:37:04.978Z,75536.09
2024-02-29T23:39:31.645Z,75519.56
2024-02-29T23:41:58.708Z,75505.09
2024-02-29T23:44:25.368Z,75496.81
2024-02-29T23:46:52.049Z,75498.88
2024-02-29T23:49:18.775Z,75492.69
2024-02-29T23:51:45.512Z,75486.47
2024-02-29T23:54:12.131Z,75484.41
2024-02-29T23:56:38.732Z,75474.06
2024-02-29T23:59:05.402Z,75474.06
